createdAt,value
2018-10-17T00:00:12.084Z,993.64
2018-10-17T00:01:12.195Z,993.65
2018-10-17T00:02:12.079Z,993.66
2018-10-17T00:03:12.085Z,993.66
2018-10-17T00:04:12.073Z,993.63
2018-10-17T00:05:12.209Z,993.65
2018-10-17T00:06:12.066Z,993.69
2018-10-17T00:07:12.067Z,993.65
2018-10-17T00:08:12.061Z,993.63
2018-10-17T00:09:12.056Z,993.63
2018-10-17T00:10:12.052Z,993.65
2018-10-17T00:11:12.139Z,993.63
2018-10-17T00:12:12.049Z,993.71
2018-10-17T00:13:12.056Z,993.71
2018-10-17T00:14:12.039Z,993.7
2018-10-17T00:15:12.037Z,993.7
2018-10-17T00:16:12.043Z,993.72
2018-10-17T00:17:12.054Z,993.67
2018-10-17T00:18:12.028Z,993.68
2018-10-17T00:19:12.109Z,993.66
2018-10-17T00:20:12.023Z,993.7
2018-10-17T00:21:12.017Z,993.69
2018-10-17T00:22:12.013Z,993.68
2018-10-17T00:23:12.102Z,993.63
2018-10-17T00:24:12.015Z,993.69
2018-10-17T00:25:12.140Z,993.65
2018-10-17T00:26:12.001Z,993.67
2018-10-17T00:27:12.000Z,993.68
2018-10-17T00:28:11.997Z,993.64
2018-10-17T00:29:12.107Z,993.64
2018-10-17T00:30:11.991Z,993.61
2018-10-17T00:31:12.115Z,993.62
2018-10-17T00:32:11.983Z,993.61
2018-10-17T00:33:11.981Z,993.62
2018-10-17T00:34:11.978Z,993.62
2018-10-17T00:35:12.095Z,993.64
2018-10-17T00:36:11.970Z,993.61
2018-10-17T00:37:12.041Z,993.62
2018-10-17T00:38:11.972Z,993.64
2018-10-17T00:39:11.962Z,993.62
2018-10-17T00:40:11.988Z,993.6
2018-10-17T00:41:12.045Z,993.56
2018-10-17T00:42:11.955Z,993.58
2018-10-17T00:43:12.026Z,993.54
2018-10-17T00:44:11.944Z,993.56
2018-10-17T00:45:11.941Z,993.56
2018-10-17T00:46:11.944Z,993.56
2018-10-17T00:47:11.995Z,993.56
2018-10-17T00:48:11.933Z,993.58
2018-10-17T00:49:11.993Z,993.57
2018-10-17T00:50:11.938Z,993.55
2018-10-17T00:51:11.931Z,993.6
2018-10-17T00:52:11.917Z,993.58
2018-10-17T00:53:11.933Z,993.6
2018-10-17T00:54:11.912Z,993.59
2018-10-17T00:55:12.048Z,993.57
2018-10-17T00:56:11.906Z,993.59
2018-10-17T00:57:11.903Z,993.56
2018-10-17T00:58:11.911Z,993.6
2018-10-17T00:59:11.945Z,993.53
2018-10-17T01:00:11.894Z,993.56
2018-10-17T01:01:12.003Z,993.55
2018-10-17T01:02:11.891Z,993.54
2018-10-17T01:03:11.887Z,993.5
2018-10-17T01:04:11.883Z,993.51
2018-10-17T01:05:12.004Z,993.51
2018-10-17T01:06:11.880Z,993.5
2018-10-17T01:07:11.947Z,993.52
2018-10-17T01:08:11.879Z,993.52
2018-10-17T01:09:11.861Z,993.53
2018-10-17T01:10:11.858Z,993.52
2018-10-17T01:11:11.929Z,993.51
2018-10-17T01:12:11.853Z,993.51
2018-10-17T01:13:11.867Z,993.51
2018-10-17T01:14:11.845Z,993.53
2018-10-17T01:15:11.844Z,993.5
2018-10-17T01:16:11.903Z,993.5
2018-10-17T01:17:11.980Z,993.49
2018-10-17T01:18:11.831Z,993.49
2018-10-17T01:19:11.923Z,993.5
2018-10-17T01:20:11.824Z,993.45
2018-10-17T01:21:11.839Z,993.49
2018-10-17T01:22:11.822Z,993.41
2018-10-17T01:23:11.896Z,993.48
2018-10-17T01:24:11.807Z,993.47
2018-10-17T01:25:11.862Z,993.48
2018-10-17T01:26:11.801Z,993.44
2018-10-17T01:27:11.800Z,993.43
2018-10-17T01:28:11.797Z,993.4
2018-10-17T01:29:11.840Z,993.45
2018-10-17T01:30:11.787Z,993.42
2018-10-17T01:31:11.872Z,993.4
2018-10-17T01:32:11.790Z,993.41
2018-10-17T01:33:11.775Z,993.43
2018-10-17T01:34:14.431Z,993.42
2018-10-17T01:35:11.835Z,993.44
2018-10-17T01:36:11.804Z,993.43
2018-10-17T01:37:11.825Z,993.4
2018-10-17T01:38:11.765Z,993.46
2018-10-17T01:39:11.754Z,993.4
2018-10-17T01:40:11.755Z,993.43
2018-10-17T01:41:11.881Z,993.36
2018-10-17T01:42:11.742Z,993.42
2018-10-17T01:43:11.856Z,993.41
2018-10-17T01:44:11.734Z,993.42
2018-10-17T01:45:11.737Z,993.38
2018-10-17T01:46:11.732Z,993.36
2018-10-17T01:47:11.830Z,993.32
2018-10-17T01:48:11.720Z,993.32
2018-10-17T01:49:11.749Z,993.32
2018-10-17T01:50:11.715Z,993.27
2018-10-17T01:51:11.707Z,993.3
2018-10-17T01:52:11.705Z,993.26
2018-10-17T01:53:11.813Z,993.29
2018-10-17T01:54:11.706Z,993.31
2018-10-17T01:55:11.713Z,993.28
2018-10-17T01:56:11.687Z,993.27
2018-10-17T01:57:11.684Z,993.31
2018-10-17T01:58:11.680Z,993.23
2018-10-17T01:59:11.718Z,993.26
2018-10-17T02:00:11.690Z,993.29
2018-10-17T02:01:11.746Z,993.25
2018-10-17T02:02:11.663Z,993.21
2018-10-17T02:03:11.657Z,993.24
2018-10-17T02:04:11.656Z,993.21
2018-10-17T02:05:11.752Z,993.21
2018-10-17T02:06:11.652Z,993.24
2018-10-17T02:07:11.819Z,993.22
2018-10-17T02:08:11.638Z,993.2
2018-10-17T02:09:11.637Z,993.24
2018-10-17T02:10:11.628Z,993.23
2018-10-17T02:11:11.697Z,993.24
2018-10-17T02:12:11.617Z,993.27
2018-10-17T02:13:11.674Z,993.28
2018-10-17T02:14:11.611Z,993.29
2018-10-17T02:15:11.605Z,993.26
2018-10-17T02:16:11.601Z,993.26
2018-10-17T02:17:11.662Z,993.22
2018-10-17T02:18:11.598Z,993.28
2018-10-17T02:19:11.662Z,993.33
2018-10-17T02:20:11.583Z,993.25
2018-10-17T02:21:11.575Z,993.27
2018-10-17T02:22:11.571Z,993.23
2018-10-17T02:23:11.624Z,993.21
2018-10-17T02:24:11.576Z,993.29
2018-10-17T02:25:11.670Z,993.27
2018-10-17T02:26:11.551Z,993.24
2018-10-17T02:27:11.545Z,993.29
2018-10-17T02:28:11.543Z,993.27
2018-10-17T02:29:11.607Z,993.26
2018-10-17T02:30:11.536Z,993.28
2018-10-17T02:31:11.592Z,993.29
2018-10-17T02:32:11.520Z,993.26
2018-10-17T02:33:11.517Z,993.27
2018-10-17T02:34:11.516Z,993.29
2018-10-17T02:35:11.567Z,993.31
2018-10-17T02:36:11.515Z,993.25
2018-10-17T02:37:11.630Z,993.26
2018-10-17T02:38:11.495Z,993.26
2018-10-17T02:39:11.497Z,993.27
2018-10-17T02:40:11.481Z,993.2
2018-10-17T02:41:11.523Z,993.23
2018-10-17T02:42:11.477Z,993.24
2018-10-17T02:43:11.566Z,993.21
2018-10-17T02:44:11.463Z,993.22
2018-10-17T02:45:11.458Z,993.24
2018-10-17T02:46:11.456Z,993.19
2018-10-17T02:47:11.474Z,993.16
2018-10-17T02:48:11.447Z,993.19
2018-10-17T02:49:11.543Z,993.14
2018-10-17T02:50:11.446Z,993.19
2018-10-17T02:51:11.442Z,993.15
2018-10-17T02:52:11.435Z,993.14
2018-10-17T02:53:11.452Z,993.12
2018-10-17T02:54:11.413Z,993.16
2018-10-17T02:55:11.482Z,993.13
2018-10-17T02:56:11.403Z,993.17
2018-10-17T02:57:11.402Z,993.17
2018-10-17T02:58:11.409Z,993.17
2018-10-17T02:59:11.520Z,993.15
2018-10-17T03:00:11.404Z,993.12
2018-10-17T03:01:11.476Z,993.14
2018-10-17T03:02:11.380Z,993.15
2018-10-17T03:03:11.371Z,993.18
2018-10-17T03:04:11.367Z,993.16
2018-10-17T03:05:11.408Z,993.15
2018-10-17T03:06:11.359Z,993.11
2018-10-17T03:07:11.509Z,993.14
2018-10-17T03:08:11.353Z,993.15
2018-10-17T03:09:11.350Z,993.13
2018-10-17T03:10:11.347Z,993.13
2018-10-17T03:11:11.494Z,993.16
2018-10-17T03:12:11.351Z,993.15
2018-10-17T03:13:11.417Z,993.16
2018-10-17T03:14:11.321Z,993.17
2018-10-17T03:15:11.329Z,993.17
2018-10-17T03:16:11.319Z,993.18
2018-10-17T03:17:11.423Z,993.18
2018-10-17T03:18:11.304Z,993.16
2018-10-17T03:19:11.325Z,993.18
2018-10-17T03:20:11.357Z,993.18
2018-10-17T03:21:11.290Z,993.2
2018-10-17T03:22:11.290Z,993.21
2018-10-17T03:23:11.397Z,993.19
2018-10-17T03:24:11.282Z,993.17
2018-10-17T03:25:11.341Z,993.21
2018-10-17T03:26:11.273Z,993.2
2018-10-17T03:27:11.270Z,993.21
2018-10-17T03:28:11.272Z,993.21
2018-10-17T03:29:11.346Z,993.23
2018-10-17T03:30:11.254Z,993.24
2018-10-17T03:31:11.340Z,993.23
2018-10-17T03:32:11.246Z,993.2
2018-10-17T03:33:11.246Z,993.22
2018-10-17T03:34:11.243Z,993.24
2018-10-17T03:35:11.284Z,993.19
2018-10-17T03:36:11.244Z,993.23
2018-10-17T03:37:11.311Z,993.22
2018-10-17T03:38:11.223Z,993.21
2018-10-17T03:39:11.229Z,993.23
2018-10-17T03:40:11.222Z,993.22
2018-10-17T03:41:11.296Z,993.2
2018-10-17T03:42:11.208Z,993.24
2018-10-17T03:43:11.308Z,993.26
2018-10-17T03:44:11.198Z,993.26
2018-10-17T03:45:11.208Z,993.25
2018-10-17T03:46:11.187Z,993.27
2018-10-17T03:47:11.326Z,993.24
2018-10-17T03:48:11.184Z,993.28
2018-10-17T03:49:11.316Z,993.28
2018-10-17T03:50:11.171Z,993.26
2018-10-17T03:51:11.167Z,993.29
2018-10-17T03:52:11.168Z,993.31
2018-10-17T03:53:11.239Z,993.33
2018-10-17T03:54:11.165Z,993.25
2018-10-17T03:55:11.325Z,993.3
2018-10-17T03:56:11.161Z,993.28
2018-10-17T03:57:11.146Z,993.25
2018-10-17T03:58:11.138Z,993.31
2018-10-17T03:59:11.255Z,993.25
2018-10-17T04:00:11.127Z,993.27
2018-10-17T04:01:11.169Z,993.26
2018-10-17T04:02:11.117Z,993.24
2018-10-17T04:03:11.275Z,993.26
2018-10-17T04:04:11.107Z,993.27
2018-10-17T04:05:11.181Z,993.24
2018-10-17T04:06:11.119Z,993.27
2018-10-17T04:07:11.153Z,993.27
2018-10-17T04:08:11.116Z,993.32
2018-10-17T04:09:11.084Z,993.29
2018-10-17T04:10:11.083Z,993.28
2018-10-17T04:11:11.166Z,993.31
2018-10-17T04:12:11.067Z,993.31
2018-10-17T04:13:11.175Z,993.34
2018-10-17T04:14:11.059Z,993.31
2018-10-17T04:15:11.057Z,993.34
2018-10-17T04:16:11.057Z,993.3
2018-10-17T04:17:11.181Z,993.3
2018-10-17T04:18:11.048Z,993.27
2018-10-17T04:19:11.105Z,993.31
2018-10-17T04:20:11.042Z,993.36
2018-10-17T04:21:11.033Z,993.33
2018-10-17T04:22:11.025Z,993.34
2018-10-17T04:23:11.131Z,993.34
2018-10-17T04:24:11.042Z,993.33
2018-10-17T04:25:11.193Z,993.33
2018-10-17T04:26:11.003Z,993.32
2018-10-17T04:27:11.005Z,993.32
2018-10-17T04:28:10.998Z,993.35
2018-10-17T04:29:11.090Z,993.34
2018-10-17T04:30:10.991Z,993.36
2018-10-17T04:31:11.020Z,993.36
2018-10-17T04:32:10.977Z,993.38
2018-10-17T04:33:10.978Z,993.4
2018-10-17T04:34:10.967Z,993.41
2018-10-17T04:35:11.019Z,993.43
2018-10-17T04:36:11.091Z,993.42
2018-10-17T04:37:11.067Z,993.39
2018-10-17T04:38:10.952Z,993.43
2018-10-17T04:39:10.950Z,993.43
2018-10-17T04:40:10.956Z,993.41
2018-10-17T04:41:10.985Z,993.44
2018-10-17T04:42:10.931Z,993.42
2018-10-17T04:43:11.023Z,993.41
2018-10-17T04:44:10.924Z,993.42
2018-10-17T04:45:10.930Z,993.43
2018-10-17T04:46:10.919Z,993.38
2018-10-17T04:47:11.024Z,993.37
2018-10-17T04:48:10.912Z,993.37
2018-10-17T04:49:11.011Z,993.37
2018-10-17T04:50:10.903Z,993.38
2018-10-17T04:51:10.900Z,993.4
2018-10-17T04:52:10.883Z,993.36
2018-10-17T04:53:11.014Z,993.38
2018-10-17T04:54:10.878Z,993.37
2018-10-17T04:55:11.004Z,993.34
2018-10-17T04:56:10.875Z,993.36
2018-10-17T04:57:10.870Z,993.36
2018-10-17T04:58:10.858Z,993.4
2018-10-17T04:59:10.918Z,993.37
2018-10-17T05:00:10.858Z,993.35
2018-10-17T05:01:10.988Z,993.4
2018-10-17T05:02:10.841Z,993.41
2018-10-17T05:03:10.839Z,993.38
2018-10-17T05:04:10.831Z,993.42
2018-10-17T05:05:10.888Z,993.42
2018-10-17T05:06:10.819Z,993.39
2018-10-17T05:07:10.874Z,993.4
2018-10-17T05:08:10.812Z,993.4
2018-10-17T05:09:10.828Z,993.42
2018-10-17T05:10:10.848Z,993.38
2018-10-17T05:11:10.917Z,993.43
2018-10-17T05:12:10.792Z,993.43
2018-10-17T05:13:10.853Z,993.42
2018-10-17T05:14:10.783Z,993.43
2018-10-17T05:15:10.796Z,993.44
2018-10-17T05:16:10.775Z,993.4
2018-10-17T05:17:10.851Z,993.44
2018-10-17T05:18:10.773Z,993.42
2018-10-17T05:19:10.883Z,993.41
2018-10-17T05:20:10.894Z,993.44
2018-10-17T05:21:10.772Z,993.42
2018-10-17T05:22:10.747Z,993.44
2018-10-17T05:23:10.788Z,993.46
2018-10-17T05:24:10.737Z,993.47
2018-10-17T05:25:10.868Z,993.46
2018-10-17T05:26:10.728Z,993.48
2018-10-17T05:27:10.731Z,993.45
2018-10-17T05:28:10.719Z,993.46
2018-10-17T05:29:10.783Z,993.45
2018-10-17T05:30:10.719Z,993.42
2018-10-17T05:31:10.758Z,993.41
2018-10-17T05:32:10.701Z,993.43
2018-10-17T05:33:10.700Z,993.45
2018-10-17T05:34:10.697Z,993.42
2018-10-17T05:35:10.870Z,993.45
2018-10-17T05:36:10.681Z,993.45
2018-10-17T05:37:10.789Z,993.48
2018-10-17T05:38:10.777Z,993.48
2018-10-17T05:39:10.668Z,993.47
2018-10-17T05:40:10.668Z,993.5
2018-10-17T05:41:10.717Z,993.48
2018-10-17T05:42:10.650Z,993.52
2018-10-17T05:43:10.732Z,993.48
2018-10-17T05:44:10.644Z,993.49
2018-10-17T05:45:10.637Z,993.51
2018-10-17T05:46:10.641Z,993.49
2018-10-17T05:47:10.797Z,993.51
2018-10-17T05:48:10.629Z,993.47
2018-10-17T05:49:10.733Z,993.46
2018-10-17T05:50:10.618Z,993.52
2018-10-17T05:51:10.609Z,993.54
2018-10-17T05:52:10.605Z,993.52
2018-10-17T05:53:10.680Z,993.51
2018-10-17T05:54:10.593Z,993.54
2018-10-17T05:55:10.742Z,993.56
2018-10-17T05:56:10.583Z,993.56
2018-10-17T05:57:10.580Z,993.61
2018-10-17T05:58:10.573Z,993.61
2018-10-17T05:59:10.660Z,993.59
2018-10-17T06:00:10.598Z,993.59
2018-10-17T06:01:10.710Z,993.57
2018-10-17T06:02:10.594Z,993.61
2018-10-17T06:03:10.550Z,993.58
2018-10-17T06:04:10.546Z,993.59
2018-10-17T06:05:10.620Z,993.62
2018-10-17T06:06:10.537Z,993.59
2018-10-17T06:07:10.684Z,993.62
2018-10-17T06:08:10.525Z,993.6
2018-10-17T06:09:10.522Z,993.6
2018-10-17T06:10:10.560Z,993.61
2018-10-17T06:11:10.622Z,993.61
2018-10-17T06:12:10.509Z,993.61
2018-10-17T06:13:10.536Z,993.6
2018-10-17T06:14:10.496Z,993.6
2018-10-17T06:15:10.495Z,993.64
2018-10-17T06:16:10.496Z,993.6
2018-10-17T06:17:10.506Z,993.69
2018-10-17T06:18:10.483Z,993.65
2018-10-17T06:19:10.558Z,993.68
2018-10-17T06:20:10.471Z,993.7
2018-10-17T06:21:10.464Z,993.68
2018-10-17T06:22:10.461Z,993.69
2018-10-17T06:23:10.561Z,993.64
2018-10-17T06:24:10.454Z,993.68
2018-10-17T06:25:10.551Z,993.74
2018-10-17T06:26:10.447Z,993.77
2018-10-17T06:27:10.445Z,993.78
2018-10-17T06:28:10.460Z,993.76
2018-10-17T06:29:10.497Z,993.73
2018-10-17T06:30:10.421Z,993.71
2018-10-17T06:31:10.467Z,993.73
2018-10-17T06:32:10.416Z,993.67
2018-10-17T06:33:10.405Z,993.75
2018-10-17T06:34:10.518Z,993.73
2018-10-17T06:35:10.481Z,993.77
2018-10-17T06:36:10.395Z,993.71
2018-10-17T06:37:10.455Z,993.76
2018-10-17T06:38:10.381Z,993.79
2018-10-17T06:39:10.384Z,993.79
2018-10-17T06:40:10.373Z,993.79
2018-10-17T06:41:10.461Z,993.81
2018-10-17T06:42:10.358Z,993.81
2018-10-17T06:43:10.446Z,993.86
2018-10-17T06:44:10.449Z,993.8
2018-10-17T06:45:10.343Z,993.83
2018-10-17T06:46:10.339Z,993.83
2018-10-17T06:47:10.380Z,993.84
2018-10-17T06:48:10.334Z,993.82
2018-10-17T06:49:10.390Z,993.82
2018-10-17T06:50:10.320Z,993.82
2018-10-17T06:51:10.401Z,993.8
2018-10-17T06:52:10.309Z,993.8
2018-10-17T06:53:10.396Z,993.78
2018-10-17T06:54:10.370Z,993.77
2018-10-17T06:55:10.363Z,993.81
2018-10-17T06:56:10.293Z,993.8
2018-10-17T06:57:10.297Z,993.8
2018-10-17T06:58:10.298Z,993.75
2018-10-17T06:59:10.328Z,993.8
2018-10-17T07:00:10.307Z,993.79
2018-10-17T07:01:10.368Z,993.78
2018-10-17T07:02:10.337Z,993.78
2018-10-17T07:03:10.262Z,993.79
2018-10-17T07:04:10.256Z,993.78
2018-10-17T07:05:10.381Z,993.79
2018-10-17T07:06:10.252Z,993.8
2018-10-17T07:07:10.518Z,993.79
2018-10-17T07:08:10.244Z,993.8
2018-10-17T07:09:10.244Z,993.79
2018-10-17T07:10:10.269Z,993.8
2018-10-17T07:11:10.257Z,993.81
2018-10-17T07:12:10.229Z,993.81
2018-10-17T07:13:10.241Z,993.88
2018-10-17T07:14:10.224Z,993.77
2018-10-17T07:15:10.238Z,993.79
2018-10-17T07:16:10.234Z,993.8
2018-10-17T07:17:10.313Z,993.76
2018-10-17T07:18:10.219Z,993.73
2018-10-17T07:19:10.255Z,993.74
2018-10-17T07:20:10.225Z,993.72
2018-10-17T07:21:10.221Z,993.71
2018-10-17T07:22:10.221Z,993.78
2018-10-17T07:23:10.298Z,993.75
2018-10-17T07:24:10.225Z,993.72
2018-10-17T07:25:10.355Z,993.77
2018-10-17T07:26:10.224Z,993.75
2018-10-17T07:27:10.224Z,993.71
2018-10-17T07:28:10.241Z,993.73
2018-10-17T07:29:10.258Z,993.73
2018-10-17T07:30:10.274Z,993.72
2018-10-17T07:31:10.302Z,993.76
2018-10-17T07:32:10.229Z,993.65
2018-10-17T07:33:10.235Z,993.67
2018-10-17T07:34:10.233Z,993.66
2018-10-17T07:35:10.304Z,993.66
2018-10-17T07:36:10.323Z,993.68
2018-10-17T07:37:10.239Z,993.67
2018-10-17T07:38:10.239Z,993.63
2018-10-17T07:39:10.246Z,993.66
2018-10-17T07:40:10.358Z,993.65
2018-10-17T07:41:10.244Z,993.69
2018-10-17T07:42:10.325Z,993.67
2018-10-17T07:43:10.269Z,993.7
2018-10-17T07:44:10.257Z,993.69
2018-10-17T07:45:10.384Z,993.69
2018-10-17T07:46:10.262Z,993.69
2018-10-17T07:47:10.263Z,993.66
2018-10-17T07:48:10.332Z,993.67
2018-10-17T07:49:10.261Z,993.61
2018-10-17T07:50:10.409Z,993.65
2018-10-17T07:51:10.263Z,993.67
2018-10-17T07:52:10.278Z,993.65
2018-10-17T07:53:10.338Z,993.67
2018-10-17T07:54:10.332Z,993.7
2018-10-17T07:55:10.526Z,993.7
2018-10-17T07:56:10.276Z,993.68
2018-10-17T07:57:10.278Z,993.68
2018-10-17T07:58:10.282Z,993.74
2018-10-17T07:59:10.285Z,993.71
2018-10-17T08:00:10.379Z,993.74
2018-10-17T08:01:10.290Z,993.68
2018-10-17T08:02:10.289Z,993.71
2018-10-17T08:03:10.294Z,993.66
2018-10-17T08:04:10.296Z,993.67
2018-10-17T08:05:10.404Z,993.67
2018-10-17T08:06:10.441Z,993.66
2018-10-17T08:07:10.305Z,993.66
2018-10-17T08:08:10.318Z,993.66
2018-10-17T08:09:10.308Z,993.62
2018-10-17T08:10:10.414Z,993.63
2018-10-17T08:11:10.312Z,993.65
2018-10-17T08:12:10.471Z,993.62
2018-10-17T08:13:10.327Z,993.65
2018-10-17T08:14:10.392Z,993.63
2018-10-17T08:15:10.464Z,993.65
2018-10-17T08:16:10.319Z,993.66
2018-10-17T08:17:10.320Z,993.71
2018-10-17T08:18:10.366Z,993.68
2018-10-17T08:19:10.334Z,993.67
2018-10-17T08:20:10.457Z,993.73
2018-10-17T08:21:10.379Z,993.71
2018-10-17T08:22:10.324Z,993.71
2018-10-17T08:23:10.330Z,993.71
2018-10-17T08:24:10.492Z,993.74
2018-10-17T08:25:10.432Z,993.73
2018-10-17T08:26:10.337Z,993.69
2018-10-17T08:27:10.337Z,993.73
2018-10-17T08:28:10.336Z,993.8
2018-10-17T08:29:10.322Z,993.75
2018-10-17T08:30:10.406Z,993.74
2018-10-17T08:31:10.322Z,993.76
2018-10-17T08:32:10.320Z,993.72
2018-10-17T08:33:10.329Z,993.72
2018-10-17T08:34:10.320Z,993.75
2018-10-17T08:35:10.376Z,993.73
2018-10-17T08:36:10.455Z,993.76
2018-10-17T08:37:10.722Z,993.7
2018-10-17T08:38:10.338Z,993.72
2018-10-17T08:39:10.318Z,993.77
2018-10-17T08:40:10.339Z,993.73
2018-10-17T08:41:10.397Z,993.77
2018-10-17T08:42:10.315Z,993.73
2018-10-17T08:43:10.319Z,993.73
2018-10-17T08:44:10.416Z,993.74
2018-10-17T08:45:10.506Z,993.73
2018-10-17T08:46:10.309Z,993.73
2018-10-17T08:47:10.311Z,993.73
2018-10-17T08:48:10.310Z,993.69
2018-10-17T08:49:10.311Z,993.69
2018-10-17T08:50:10.392Z,993.67
2018-10-17T08:51:10.417Z,993.7
2018-10-17T08:52:10.314Z,993.71
2018-10-17T08:53:10.305Z,993.7
2018-10-17T08:54:10.306Z,993.66
2018-10-17T08:55:10.301Z,993.63
2018-10-17T08:56:10.407Z,993.61
2018-10-17T08:57:10.302Z,993.64
2018-10-17T08:58:10.301Z,993.57
2018-10-17T08:59:10.304Z,993.61
2018-10-17T09:00:10.493Z,993.6
2018-10-17T09:01:10.303Z,993.55
2018-10-17T09:02:10.389Z,993.57
2018-10-17T09:03:10.296Z,993.54
2018-10-17T09:04:10.301Z,993.55
2018-10-17T09:05:10.357Z,993.56
2018-10-17T09:06:10.360Z,993.57
2018-10-17T09:07:10.301Z,993.57
2018-10-17T09:08:10.357Z,993.53
2018-10-17T09:09:10.315Z,993.5
2018-10-17T09:10:10.298Z,993.47
2018-10-17T09:11:10.295Z,993.54
2018-10-17T09:12:10.387Z,993.56
2018-10-17T09:13:10.303Z,993.5
2018-10-17T09:14:10.356Z,993.53
2018-10-17T09:15:10.482Z,993.56
2018-10-17T09:16:10.348Z,993.54
2018-10-17T09:17:10.300Z,993.56
2018-10-17T09:18:10.356Z,993.54
2018-10-17T09:19:10.313Z,993.54
2018-10-17T09:20:10.689Z,993.52
2018-10-17T09:21:10.630Z,993.5
2018-10-17T09:22:10.599Z,993.5
2018-10-17T09:23:10.288Z,993.5
2018-10-17T09:24:10.367Z,993.49
2018-10-17T09:25:10.408Z,993.49
2018-10-17T09:26:10.286Z,993.48
2018-10-17T09:27:10.285Z,993.52
2018-10-17T09:28:10.407Z,993.46
2018-10-17T09:29:10.292Z,993.44
2018-10-17T09:30:10.411Z,993.44
2018-10-17T09:31:10.284Z,993.47
2018-10-17T09:32:11.083Z,993.41
2018-10-17T09:33:10.283Z,993.38
2018-10-17T09:34:10.325Z,993.39
2018-10-17T09:35:10.316Z,993.4
2018-10-17T09:36:10.322Z,993.4
2018-10-17T09:37:10.293Z,993.39
2018-10-17T09:38:10.294Z,993.35
2018-10-17T09:39:10.282Z,993.38
2018-10-17T09:40:10.392Z,993.35
2018-10-17T09:41:10.280Z,993.36
2018-10-17T09:42:10.314Z,993.37
2018-10-17T09:43:10.332Z,993.35
2018-10-17T09:44:10.290Z,993.35
2018-10-17T09:45:10.326Z,993.37
2018-10-17T09:46:10.411Z,993.36
2018-10-17T09:47:10.283Z,993.38
2018-10-17T09:48:10.305Z,993.32
2018-10-17T09:49:10.282Z,993.3
2018-10-17T09:50:10.412Z,993.31
2018-10-17T09:51:10.287Z,993.32
2018-10-17T09:52:10.449Z,993.32
2018-10-17T09:53:10.309Z,993.31
2018-10-17T09:54:10.357Z,993.3
2018-10-17T09:55:10.290Z,993.29
2018-10-17T09:56:10.286Z,993.24
2018-10-17T09:57:10.309Z,993.23
2018-10-17T09:58:10.409Z,993.27
2018-10-17T09:59:10.286Z,993.24
2018-10-17T10:00:10.332Z,993.24
2018-10-17T10:01:10.289Z,993.23
2018-10-17T10:02:10.369Z,993.22
2018-10-17T10:03:10.290Z,993.19
2018-10-17T10:04:10.322Z,993.22
2018-10-17T10:05:10.292Z,993.19
2018-10-17T10:06:10.374Z,993.17
2018-10-17T10:07:10.291Z,993.13
2018-10-17T10:08:10.296Z,993.11
2018-10-17T10:09:10.293Z,993.14
2018-10-17T10:10:10.372Z,993.13
2018-10-17T10:11:10.333Z,993.13
2018-10-17T10:12:10.433Z,993.12
2018-10-17T10:13:10.297Z,993.14
2018-10-17T10:14:10.295Z,993.11
2018-10-17T10:15:10.329Z,993.1
2018-10-17T10:16:10.344Z,993.05
2018-10-17T10:17:10.433Z,993.06
2018-10-17T10:18:10.298Z,993
2018-10-17T10:19:10.301Z,993.01
2018-10-17T10:20:10.338Z,992.98
2018-10-17T10:21:10.303Z,993.01
2018-10-17T10:22:10.396Z,992.97
2018-10-17T10:23:10.398Z,992.98
2018-10-17T10:24:10.374Z,993
2018-10-17T10:25:10.372Z,992.94
2018-10-17T10:26:10.308Z,992.96
2018-10-17T10:27:10.308Z,992.95
2018-10-17T10:28:10.427Z,992.92
2018-10-17T10:29:10.308Z,992.93
2018-10-17T10:30:10.541Z,992.91
2018-10-17T10:31:10.316Z,992.95
2018-10-17T10:32:10.310Z,992.9
2018-10-17T10:33:10.320Z,992.89
2018-10-17T10:34:10.382Z,992.88
2018-10-17T10:35:10.412Z,992.86
2018-10-17T10:36:10.403Z,992.83
2018-10-17T10:37:10.318Z,992.84
2018-10-17T10:38:10.320Z,992.84
2018-10-17T10:39:10.317Z,992.8
2018-10-17T10:40:10.408Z,992.78
2018-10-17T10:41:10.325Z,992.75
2018-10-17T10:42:10.480Z,992.76
2018-10-17T10:43:10.329Z,992.74
2018-10-17T10:44:10.406Z,992.76
2018-10-17T10:45:10.453Z,992.76
2018-10-17T10:46:10.341Z,992.8
2018-10-17T10:47:10.339Z,992.76
2018-10-17T10:48:10.501Z,992.74
2018-10-17T10:49:10.367Z,992.78
2018-10-17T10:50:10.551Z,992.78
2018-10-17T10:51:10.443Z,992.77
2018-10-17T10:52:10.340Z,992.77
2018-10-17T10:53:10.346Z,992.73
2018-10-17T10:54:10.413Z,992.77
2018-10-17T10:55:10.371Z,992.76
2018-10-17T10:56:10.397Z,992.69
2018-10-17T10:57:10.464Z,992.72
2018-10-17T10:58:10.444Z,992.69
2018-10-17T10:59:10.436Z,992.68
2018-10-17T11:00:10.422Z,992.7
2018-10-17T11:01:10.354Z,992.66
2018-10-17T11:02:10.418Z,992.66
2018-10-17T11:03:10.434Z,992.64
2018-10-17T11:04:10.357Z,992.63
2018-10-17T11:05:10.474Z,992.58
2018-10-17T11:06:10.360Z,992.58
2018-10-17T11:07:10.364Z,992.6
2018-10-17T11:08:10.426Z,992.58
2018-10-17T11:09:10.370Z,992.55
2018-10-17T11:10:10.370Z,992.52
2018-10-17T11:11:10.418Z,992.55
2018-10-17T11:12:10.413Z,992.49
2018-10-17T11:13:10.371Z,992.5
2018-10-17T11:14:10.701Z,992.47
2018-10-17T11:15:10.422Z,992.46
2018-10-17T11:16:10.376Z,992.47
2018-10-17T11:17:10.509Z,992.47
2018-10-17T11:18:10.389Z,992.47
2018-10-17T11:19:10.381Z,992.42
2018-10-17T11:20:10.407Z,992.45
2018-10-17T11:21:10.444Z,992.4
2018-10-17T11:22:10.389Z,992.38
2018-10-17T11:23:10.497Z,992.4
2018-10-17T11:24:10.392Z,992.38
2018-10-17T11:25:10.396Z,992.37
2018-10-17T11:26:10.409Z,992.36
2018-10-17T11:27:10.531Z,992.38
2018-10-17T11:28:10.423Z,992.35
2018-10-17T11:29:10.507Z,992.35
2018-10-17T11:30:10.507Z,992.33
2018-10-17T11:31:10.420Z,992.32
2018-10-17T11:32:10.415Z,992.28
2018-10-17T11:33:10.601Z,992.32
2018-10-17T11:34:10.424Z,992.29
2018-10-17T11:35:10.607Z,992.3
2018-10-17T11:36:10.428Z,992.28
2018-10-17T11:37:10.420Z,992.25
2018-10-17T11:38:10.427Z,992.25
2018-10-17T11:39:10.466Z,992.21
2018-10-17T11:40:10.531Z,992.21
2018-10-17T11:41:10.482Z,992.19
2018-10-17T11:42:10.434Z,992.18
2018-10-17T11:43:10.437Z,992.21
2018-10-17T11:44:10.438Z,992.15
2018-10-17T11:45:10.641Z,992.19
2018-10-17T11:46:10.443Z,992.15
2018-10-17T11:47:10.481Z,992.15
2018-10-17T11:48:10.446Z,992.16
2018-10-17T11:49:10.451Z,992.17
2018-10-17T11:50:10.464Z,992.12
2018-10-17T11:51:10.553Z,992.12
2018-10-17T11:52:10.455Z,992.13
2018-10-17T11:53:10.546Z,992.13
2018-10-17T11:54:10.463Z,992.11
2018-10-17T11:55:10.541Z,992.1
2018-10-17T11:56:10.464Z,992.14
2018-10-17T11:57:10.526Z,992.1
2018-10-17T11:58:11.273Z,992.08
2018-10-17T11:59:10.505Z,992.09
2018-10-17T12:00:10.519Z,992.04
2018-10-17T12:01:10.483Z,992.02
2018-10-17T12:02:10.483Z,992.04
2018-10-17T12:03:10.741Z,992.03
2018-10-17T12:04:10.685Z,992.02
2018-10-17T12:05:10.916Z,991.99
2018-10-17T12:06:10.531Z,992
2018-10-17T12:07:10.490Z,992.04
2018-10-17T12:08:10.492Z,992
2018-10-17T12:09:10.612Z,991.98
2018-10-17T12:10:10.497Z,991.95
2018-10-17T12:11:10.515Z,991.96
2018-10-17T12:12:10.564Z,991.9
2018-10-17T12:13:10.503Z,991.89
2018-10-17T12:14:10.518Z,991.85
2018-10-17T12:15:10.702Z,991.83
2018-10-17T12:16:10.509Z,991.8
2018-10-17T12:17:10.518Z,991.82
2018-10-17T12:18:10.616Z,991.76
2018-10-17T12:19:10.663Z,991.72
2018-10-17T12:20:10.587Z,991.76
2018-10-17T12:21:10.717Z,991.71
2018-10-17T12:22:10.533Z,991.7
2018-10-17T12:23:10.578Z,991.7
2018-10-17T12:24:10.570Z,991.67
2018-10-17T12:25:10.537Z,991.71
2018-10-17T12:26:10.538Z,991.66
2018-10-17T12:27:10.605Z,991.72
2018-10-17T12:28:10.741Z,991.69
2018-10-17T12:29:10.543Z,991.67
2018-10-17T12:30:10.637Z,991.67
2018-10-17T12:31:10.550Z,991.64